sensor_id;sensor_type;location;lat;lon;timestamp;P1;durP1;ratioP1;P2;durP2;ratioP2
80127;SDS011;69440;52.118;5.408;2023-05-21T00:01:32;4.78;;;2.30;;
80127;SDS011;69440;52.118;5.408;2023-05-21T00:03:59;7.00;;;2.30;;
80127;SDS011;69440;52.118;5.408;2023-05-21T00:06:26;3.80;;;1.90;;
80127;SDS011;69440;52.118;5.408;2023-05-21T00:08:52;5.57;;;2.17;;
80127;SDS011;69440;52.118;5.408;2023-05-21T00:11:19;5.13;;;2.42;;
80127;SDS011;69440;52.118;5.408;2023-05-21T00:13:45;4.38;;;2.30;;
80127;SDS011;69440;52.118;5.408;2023-05-21T00:16:12;3.72;;;2.38;;
80127;SDS011;69440;52.118;5.408;2023-05-21T00:18:38;3.13;;;2.40;;
80127;SDS011;69440;52.118;5.408;2023-05-21T00:21:04;3.83;;;2.13;;
80127;SDS011;69440;52.118;5.408;2023-05-21T00:23:31;3.15;;;2.08;;
80127;SDS011;69440;52.118;5.408;2023-05-21T00:25:58;4.03;;;2.30;;
80127;SDS011;69440;52.118;5.408;2023-05-21T00:28:25;3.40;;;2.25;;
80127;SDS011;69440;52.118;5.408;2023-05-21T00:30:51;5.63;;;2.80;;
80127;SDS011;69440;52.118;5.408;2023-05-21T00:33:18;4.22;;;2.60;;
80127;SDS011;69440;52.118;5.408;2023-05-21T00:35:47;3.22;;;2.33;;
80127;SDS011;69440;52.118;5.408;2023-05-21T00:38:13;3.58;;;2.40;;
80127;SDS011;69440;52.118;5.408;2023-05-21T00:40:40;3.55;;;2.45;;
80127;SDS011;69440;52.118;5.408;2023-05-21T00:43:06;3.05;;;2.50;;
80127;SDS011;69440;52.118;5.408;2023-05-21T00:45:35;3.13;;;2.30;;
80127;SDS011;69440;52.118;5.408;2023-05-21T00:48:03;5.13;;;2.60;;
80127;SDS011;69440;52.118;5.408;2023-05-21T00:50:31;3.33;;;2.50;;
80127;SDS011;69440;52.118;5.408;2023-05-21T00:52:58;3.53;;;2.30;;
80127;SDS011;69440;52.118;5.408;2023-05-21T00:55:24;4.05;;;2.40;;
80127;SDS011;69440;52.118;5.408;2023-05-21T00:57:51;3.65;;;2.50;;
80127;SDS011;69440;52.118;5.408;2023-05-21T01:00:18;4.03;;;2.33;;
80127;SDS011;69440;52.118;5.408;2023-05-21T01:02:45;4.28;;;2.67;;
80127;SDS011;69440;52.118;5.408;2023-05-21T01:05:12;3.75;;;2.45;;
80127;SDS011;69440;52.118;5.408;2023-05-21T01:07:40;4.50;;;2.45;;
80127;SDS011;69440;52.118;5.408;2023-05-21T01:10:07;5.63;;;2.65;;
80127;SDS011;69440;52.118;5.408;2023-05-21T01:12:38;3.53;;;2.75;;
80127;SDS011;69440;52.118;5.408;2023-05-21T01:15:06;4.25;;;2.33;;
80127;SDS011;69440;52.118;5.408;2023-05-21T01:17:34;4.82;;;2.95;;
80127;SDS011;69440;52.118;5.408;2023-05-21T01:20:00;5.28;;;3.05;;
80127;SDS011;69440;52.118;5.408;2023-05-21T01:22:35;4.97;;;3.00;;
80127;SDS011;69440;52.118;5.408;2023-05-21T01:27:33;5.47;;;2.83;;
80127;SDS011;69440;52.118;5.408;2023-05-21T01:29:59;6.38;;;2.70;;
80127;SDS011;69440;52.118;5.408;2023-05-21T01:32:33;5.03;;;3.35;;
80127;SDS011;69440;52.118;5.408;2023-05-21T01:35:13;4.03;;;3.10;;
80127;SDS011;69440;52.118;5.408;2023-05-21T01:37:49;5.20;;;2.97;;
80127;SDS011;69440;52.118;5.408;2023-05-21T01:40:31;5.47;;;3.55;;
80127;SDS011;69440;52.118;5.408;2023-05-21T01:43:03;4.70;;;2.95;;
80127;SDS011;69440;52.118;5.408;2023-05-21T01:45:32;4.82;;;3.25;;
80127;SDS011;69440;52.118;5.408;2023-05-21T01:48:01;5.75;;;2.92;;
80127;SDS011;69440;52.118;5.408;2023-05-21T01:50:30;5.57;;;3.10;;
80127;SDS011;69440;52.118;5.408;2023-05-21T01:52:57;4.60;;;3.10;;
80127;SDS011;69440;52.118;5.408;2023-05-21T01:55:26;4.07;;;3.05;;
80127;SDS011;69440;52.118;5.408;2023-05-21T01:57:54;4.57;;;2.92;;
80127;SDS011;69440;52.118;5.408;2023-05-21T02:00:21;4.80;;;3.10;;
80127;SDS011;69440;52.118;5.408;2023-05-21T02:02:49;5.70;;;3.60;;
80127;SDS011;69440;52.118;5.408;2023-05-21T02:05:17;7.00;;;3.20;;
80127;SDS011;69440;52.118;5.408;2023-05-21T02:07:44;5.68;;;3.28;;
80127;SDS011;69440;52.118;5.408;2023-05-21T02:10:11;5.60;;;3.78;;
80127;SDS011;69440;52.118;5.408;2023-05-21T02:12:38;7.05;;;3.53;;
80127;SDS011;69440;52.118;5.408;2023-05-21T02:15:04;5.30;;;3.40;;
80127;SDS011;69440;52.118;5.408;2023-05-21T02:17:31;6.25;;;3.28;;
80127;SDS011;69440;52.118;5.408;2023-05-21T02:20:02;6.30;;;3.45;;
80127;SDS011;69440;52.118;5.408;2023-05-21T02:22:47;9.55;;;3.72;;
80127;SDS011;69440;52.118;5.408;2023-05-21T02:25:15;4.20;;;3.22;;
80127;SDS011;69440;52.118;5.408;2023-05-21T02:27:43;9.05;;;3.90;;
80127;SDS011;69440;52.118;5.408;2023-05-21T02:30:12;6.30;;;3.72;;
80127;SDS011;69440;52.118;5.408;2023-05-21T02:32:40;5.03;;;3.67;;
80127;SDS011;69440;52.118;5.408;2023-05-21T02:35:09;5.10;;;3.60;;
80127;SDS011;69440;52.118;5.408;2023-05-21T02:37:36;4.97;;;3.38;;
80127;SDS011;69440;52.118;5.408;2023-05-21T02:40:04;5.30;;;3.85;;
80127;SDS011;69440;52.118;5.408;2023-05-21T02:42:32;5.10;;;3.38;;
80127;SDS011;69440;52.118;5.408;2023-05-21T02:44:59;5.32;;;3.22;;
80127;SDS011;69440;52.118;5.408;2023-05-21T02:47:25;6.13;;;3.35;;
80127;SDS011;69440;52.118;5.408;2023-05-21T02:49:52;6.53;;;3.47;;
80127;SDS011;69440;52.118;5.408;2023-05-21T02:52:19;4.95;;;3.25;;
80127;SDS011;69440;52.118;5.408;2023-05-21T02:54:48;7.30;;;4.10;;
80127;SDS011;69440;52.118;5.408;2023-05-21T02:57:18;6.90;;;3.50;;
80127;SDS011;69440;52.118;5.408;2023-05-21T02:59:44;4.88;;;3.22;;
80127;SDS011;69440;52.118;5.408;2023-05-21T03:02:11;5.47;;;3.10;;
80127;SDS011;69440;52.118;5.408;2023-05-21T03:04:38;5.50;;;3.20;;
80127;SDS011;69440;52.118;5.408;2023-05-21T03:07:12;5.57;;;3.67;;
80127;SDS011;69440;52.118;5.408;2023-05-21T03:09:40;6.60;;;3.72;;
80127;SDS011;69440;52.118;5.408;2023-05-21T03:12:07;6.93;;;3.60;;
80127;SDS011;69440;52.118;5.408;2023-05-21T03:14:35;5.57;;;3.30;;
80127;SDS011;69440;52.118;5.408;2023-05-21T03:17:02;6.18;;;3.00;;
80127;SDS011;69440;52.118;5.408;2023-05-21T03:19:31;5.53;;;3.40;;
80127;SDS011;69440;52.118;5.408;2023-05-21T03:22:02;6.07;;;3.33;;
80127;SDS011;69440;52.118;5.408;2023-05-21T03:24:29;4.68;;;3.40;;
80127;SDS011;69440;52.118;5.408;2023-05-21T03:26:56;7.95;;;3.38;;
80127;SDS011;69440;52.118;5.408;2023-05-21T03:29:24;4.30;;;3.15;;
80127;SDS011;69440;52.118;5.408;2023-05-21T03:31:51;6.53;;;3.83;;
80127;SDS011;69440;52.118;5.408;2023-05-21T03:34:19;5.10;;;3.50;;
80127;SDS011;69440;52.118;5.408;2023-05-21T03:36:46;6.75;;;4.25;;
80127;SDS011;69440;52.118;5.408;2023-05-21T03:39:12;6.93;;;4.38;;
80127;SDS011;69440;52.118;5.408;2023-05-21T03:41:39;7.93;;;3.60;;
80127;SDS011;69440;52.118;5.408;2023-05-21T03:44:06;5.20;;;3.78;;
80127;SDS011;69440;52.118;5.408;2023-05-21T03:46:33;5.72;;;4.15;;
80127;SDS011;69440;52.118;5.408;2023-05-21T03:48:59;5.80;;;3.28;;
80127;SDS011;69440;52.118;5.408;2023-05-21T03:51:26;6.78;;;4.15;;
80127;SDS011;69440;52.118;5.408;2023-05-21T03:53:52;6.90;;;3.55;;
80127;SDS011;69440;52.118;5.408;2023-05-21T03:56:19;4.85;;;3.60;;
80127;SDS011;69440;52.118;5.408;2023-05-21T03:58:46;7.28;;;3.35;;
80127;SDS011;69440;52.118;5.408;2023-05-21T04:01:13;5.28;;;3.42;;
80127;SDS011;69440;52.118;5.408;2023-05-21T04:03:39;5.80;;;3.88;;
80127;SDS011;69440;52.118;5.408;2023-05-21T04:06:06;6.43;;;3.67;;
80127;SDS011;69440;52.118;5.408;2023-05-21T04:08:35;5.57;;;3.03;;
80127;SDS011;69440;52.118;5.408;2023-05-21T04:11:03;4.90;;;3.50;;
80127;SDS011;69440;52.118;5.408;2023-05-21T04:13:29;5.63;;;3.60;;
80127;SDS011;69440;52.118;5.408;2023-05-21T04:15:56;5.28;;;3.65;;
80127;SDS011;69440;52.118;5.408;2023-05-21T04:18:22;5.35;;;3.25;;
80127;SDS011;69440;52.118;5.408;2023-05-21T04:20:51;6.15;;;3.13;;
80127;SDS011;69440;52.118;5.408;2023-05-21T04:23:18;6.70;;;3.15;;
80127;SDS011;69440;52.118;5.408;2023-05-21T04:25:44;4.75;;;3.40;;
80127;SDS011;69440;52.118;5.408;2023-05-21T04:28:15;4.70;;;3.45;;
80127;SDS011;69440;52.118;5.408;2023-05-21T04:30:45;4.72;;;3.17;;
80127;SDS011;69440;52.118;5.408;2023-05-21T04:33:12;5.60;;;3.90;;
80127;SDS011;69440;52.118;5.408;2023-05-21T04:35:44;6.38;;;3.88;;
80127;SDS011;69440;52.118;5.408;2023-05-21T04:38:12;6.13;;;3.28;;
80127;SDS011;69440;52.118;5.408;2023-05-21T04:40:39;5.95;;;3.80;;
80127;SDS011;69440;52.118;5.408;2023-05-21T04:43:05;5.35;;;3.05;;
80127;SDS011;69440;52.118;5.408;2023-05-21T04:45:33;5.90;;;3.17;;
80127;SDS011;69440;52.118;5.408;2023-05-21T04:47:59;6.93;;;3.78;;
80127;SDS011;69440;52.118;5.408;2023-05-21T04:50:26;7.28;;;3.40;;
80127;SDS011;69440;52.118;5.408;2023-05-21T04:52:55;8.32;;;3.88;;
80127;SDS011;69440;52.118;5.408;2023-05-21T04:55:23;4.07;;;3.38;;
80127;SDS011;69440;52.118;5.408;2023-05-21T04:57:50;4.55;;;3.40;;
80127;SDS011;69440;52.118;5.408;2023-05-21T05:00:17;5.55;;;2.70;;
80127;SDS011;69440;52.118;5.408;2023-05-21T05:02:44;7.82;;;3.60;;
80127;SDS011;69440;52.118;5.408;2023-05-21T05:05:11;5.32;;;3.40;;
80127;SDS011;69440;52.118;5.408;2023-05-21T05:07:38;6.45;;;4.05;;
80127;SDS011;69440;52.118;5.408;2023-05-21T05:10:04;6.38;;;4.13;;
80127;SDS011;69440;52.118;5.408;2023-05-21T05:12:31;6.15;;;3.13;;
80127;SDS011;69440;52.118;5.408;2023-05-21T05:14:58;8.20;;;3.78;;
80127;SDS011;69440;52.118;5.408;2023-05-21T05:17:24;6.88;;;3.90;;
80127;SDS011;69440;52.118;5.408;2023-05-21T05:19:50;7.57;;;3.90;;
80127;SDS011;69440;52.118;5.408;2023-05-21T05:22:18;5.38;;;3.38;;
80127;SDS011;69440;52.118;5.408;2023-05-21T05:24:44;5.30;;;2.90;;
80127;SDS011;69440;52.118;5.408;2023-05-21T05:27:11;5.57;;;4.20;;
80127;SDS011;69440;52.118;5.408;2023-05-21T05:29:37;9.07;;;3.63;;
80127;SDS011;69440;52.118;5.408;2023-05-21T05:32:04;4.85;;;3.60;;
80127;SDS011;69440;52.118;5.408;2023-05-21T05:34:30;5.18;;;3.45;;
80127;SDS011;69440;52.118;5.408;2023-05-21T05:36:57;5.28;;;3.35;;
80127;SDS011;69440;52.118;5.408;2023-05-21T05:39:23;5.70;;;3.40;;
80127;SDS011;69440;52.118;5.408;2023-05-21T05:41:50;8.82;;;3.70;;
80127;SDS011;69440;52.118;5.408;2023-05-21T05:44:17;5.40;;;3.55;;
80127;SDS011;69440;52.118;5.408;2023-05-21T05:46:43;6.05;;;3.33;;
80127;SDS011;69440;52.118;5.408;2023-05-21T05:49:09;8.82;;;3.90;;
80127;SDS011;69440;52.118;5.408;2023-05-21T05:51:36;7.43;;;3.60;;
80127;SDS011;69440;52.118;5.408;2023-05-21T05:54:02;6.30;;;3.53;;
80127;SDS011;69440;52.118;5.408;2023-05-21T05:56:29;7.22;;;4.93;;
80127;SDS011;69440;52.118;5.408;2023-05-21T05:58:57;6.30;;;3.97;;
80127;SDS011;69440;52.118;5.408;2023-05-21T06:01:23;5.55;;;3.78;;
80127;SDS011;69440;52.118;5.408;2023-05-21T06:03:51;7.30;;;3.35;;
80127;SDS011;69440;52.118;5.408;2023-05-21T06:06:18;5.63;;;4.00;;
80127;SDS011;69440;52.118;5.408;2023-05-21T06:08:45;8.32;;;4.43;;
80127;SDS011;69440;52.118;5.408;2023-05-21T06:11:11;7.65;;;4.10;;
80127;SDS011;69440;52.118;5.408;2023-05-21T06:13:42;7.05;;;4.00;;
80127;SDS011;69440;52.118;5.408;2023-05-21T06:16:08;7.22;;;3.95;;
80127;SDS011;69440;52.118;5.408;2023-05-21T06:18:35;5.07;;;3.63;;
80127;SDS011;69440;52.118;5.408;2023-05-21T06:21:01;6.97;;;3.80;;
80127;SDS011;69440;52.118;5.408;2023-05-21T06:23:28;5.63;;;3.70;;
80127;SDS011;69440;52.118;5.408;2023-05-21T06:25:57;5.60;;;3.63;;
80127;SDS011;69440;52.118;5.408;2023-05-21T06:28:23;6.40;;;4.53;;
80127;SDS011;69440;52.118;5.408;2023-05-21T06:30:50;6.57;;;3.97;;
80127;SDS011;69440;52.118;5.408;2023-05-21T06:33:16;6.05;;;4.03;;
80127;SDS011;69440;52.118;5.408;2023-05-21T06:35:43;7.80;;;3.92;;
80127;SDS011;69440;52.118;5.408;2023-05-21T06:38:09;7.65;;;4.72;;
80127;SDS011;69440;52.118;5.408;2023-05-21T06:40:36;7.18;;;4.22;;
80127;SDS011;69440;52.118;5.408;2023-05-21T06:43:02;5.35;;;4.05;;
80127;SDS011;69440;52.118;5.408;2023-05-21T06:45:30;6.80;;;4.15;;
80127;SDS011;69440;52.118;5.408;2023-05-21T06:47:56;9.85;;;5.10;;
80127;SDS011;69440;52.118;5.408;2023-05-21T06:50:23;6.35;;;3.70;;
80127;SDS011;69440;52.118;5.408;2023-05-21T06:52:49;8.82;;;4.60;;
80127;SDS011;69440;52.118;5.408;2023-05-21T06:55:16;7.22;;;4.70;;
80127;SDS011;69440;52.118;5.408;2023-05-21T06:57:42;5.65;;;4.15;;
80127;SDS011;69440;52.118;5.408;2023-05-21T07:00:09;8.00;;;4.88;;
80127;SDS011;69440;52.118;5.408;2023-05-21T07:02:37;7.40;;;4.35;;
80127;SDS011;69440;52.118;5.408;2023-05-21T07:05:04;8.20;;;5.20;;
80127;SDS011;69440;52.118;5.408;2023-05-21T07:07:30;9.25;;;4.70;;
80127;SDS011;69440;52.118;5.408;2023-05-21T07:09:57;6.90;;;4.30;;
80127;SDS011;69440;52.118;5.408;2023-05-21T07:12:23;10.30;;;4.82;;
80127;SDS011;69440;52.118;5.408;2023-05-21T07:14:50;6.10;;;4.35;;
80127;SDS011;69440;52.118;5.408;2023-05-21T07:17:16;6.97;;;4.38;;
80127;SDS011;69440;52.118;5.408;2023-05-21T07:19:42;7.78;;;4.93;;
80127;SDS011;69440;52.118;5.408;2023-05-21T07:22:09;6.70;;;4.57;;
80127;SDS011;69440;52.118;5.408;2023-05-21T07:24:37;6.63;;;4.00;;
80127;SDS011;69440;52.118;5.408;2023-05-21T07:27:04;6.35;;;4.45;;
80127;SDS011;69440;52.118;5.408;2023-05-21T07:29:49;6.80;;;4.85;;
80127;SDS011;69440;52.118;5.408;2023-05-21T07:32:16;8.82;;;5.38;;
80127;SDS011;69440;52.118;5.408;2023-05-21T07:34:42;6.03;;;3.92;;
80127;SDS011;69440;52.118;5.408;2023-05-21T07:37:08;8.40;;;3.97;;
80127;SDS011;69440;52.118;5.408;2023-05-21T07:39:35;7.05;;;4.53;;
80127;SDS011;69440;52.118;5.408;2023-05-21T07:42:02;8.40;;;5.03;;
80127;SDS011;69440;52.118;5.408;2023-05-21T07:44:29;7.32;;;4.38;;
80127;SDS011;69440;52.118;5.408;2023-05-21T07:46:56;6.72;;;4.72;;
80127;SDS011;69440;52.118;5.408;2023-05-21T07:49:23;7.53;;;4.50;;
80127;SDS011;69440;52.118;5.408;2023-05-21T07:51:49;6.40;;;4.05;;
80127;SDS011;69440;52.118;5.408;2023-05-21T07:54:16;7.32;;;4.70;;
80127;SDS011;69440;52.118;5.408;2023-05-21T07:56:42;6.53;;;4.32;;
80127;SDS011;69440;52.118;5.408;2023-05-21T07:59:09;6.05;;;3.75;;
80127;SDS011;69440;52.118;5.408;2023-05-21T08:01:38;9.80;;;4.85;;
80127;SDS011;69440;52.118;5.408;2023-05-21T08:04:06;8.13;;;4.70;;
80127;SDS011;69440;52.118;5.408;2023-05-21T08:06:33;9.80;;;4.63;;
80127;SDS011;69440;52.118;5.408;2023-05-21T08:08:59;8.55;;;4.82;;
80127;SDS011;69440;52.118;5.408;2023-05-21T08:11:30;7.35;;;4.35;;
80127;SDS011;69440;52.118;5.408;2023-05-21T08:13:56;7.70;;;4.75;;
80127;SDS011;69440;52.118;5.408;2023-05-21T08:16:22;7.88;;;4.40;;
80127;SDS011;69440;52.118;5.408;2023-05-21T08:18:49;11.30;;;4.63;;
80127;SDS011;69440;52.118;5.408;2023-05-21T08:21:16;7.10;;;4.57;;
80127;SDS011;69440;52.118;5.408;2023-05-21T08:23:43;7.82;;;4.40;;
80127;SDS011;69440;52.118;5.408;2023-05-21T08:26:09;6.53;;;4.93;;
80127;SDS011;69440;52.118;5.408;2023-05-21T08:28:37;7.07;;;4.80;;
80127;SDS011;69440;52.118;5.408;2023-05-21T08:31:04;9.15;;;4.57;;
80127;SDS011;69440;52.118;5.408;2023-05-21T08:33:30;5.60;;;4.40;;
80127;SDS011;69440;52.118;5.408;2023-05-21T08:35:57;7.22;;;4.38;;
80127;SDS011;69440;52.118;5.408;2023-05-21T08:38:23;7.03;;;4.57;;
80127;SDS011;69440;52.118;5.408;2023-05-21T08:40:50;6.63;;;4.72;;
80127;SDS011;69440;52.118;5.408;2023-05-21T08:43:18;10.13;;;4.93;;
80127;SDS011;69440;52.118;5.408;2023-05-21T08:46:15;10.50;;;4.80;;
80127;SDS011;69440;52.118;5.408;2023-05-21T08:48:48;7.32;;;4.10;;
80127;SDS011;69440;52.118;5.408;2023-05-21T08:51:20;7.72;;;4.90;;
80127;SDS011;69440;52.118;5.408;2023-05-21T08:53:49;7.65;;;4.78;;
80127;SDS011;69440;52.118;5.408;2023-05-21T08:56:16;6.28;;;4.28;;
80127;SDS011;69440;52.118;5.408;2023-05-21T08:58:44;6.85;;;4.55;;
80127;SDS011;69440;52.118;5.408;2023-05-21T09:01:11;8.55;;;4.40;;
80127;SDS011;69440;52.118;5.408;2023-05-21T09:03:39;8.30;;;4.78;;
80127;SDS011;69440;52.118;5.408;2023-05-21T09:06:08;6.68;;;4.78;;
80127;SDS011;69440;52.118;5.408;2023-05-21T09:08:37;7.07;;;4.28;;
80127;SDS011;69440;52.118;5.408;2023-05-21T09:11:08;7.93;;;5.70;;
80127;SDS011;69440;52.118;5.408;2023-05-21T09:13:34;13.68;;;6.55;;
80127;SDS011;69440;52.118;5.408;2023-05-21T09:16:04;9.10;;;5.50;;
80127;SDS011;69440;52.118;5.408;2023-05-21T09:18:32;6.07;;;4.35;;
80127;SDS011;69440;52.118;5.408;2023-05-21T09:20:59;6.80;;;4.63;;
80127;SDS011;69440;52.118;5.408;2023-05-21T09:23:52;8.82;;;5.00;;
80127;SDS011;69440;52.118;5.408;2023-05-21T09:26:22;8.80;;;4.75;;
80127;SDS011;69440;52.118;5.408;2023-05-21T09:28:50;6.70;;;4.82;;
80127;SDS011;69440;52.118;5.408;2023-05-21T09:31:17;6.93;;;4.35;;
80127;SDS011;69440;52.118;5.408;2023-05-21T09:33:47;5.28;;;4.28;;
80127;SDS011;69440;52.118;5.408;2023-05-21T09:36:13;6.40;;;4.72;;
80127;SDS011;69440;52.118;5.408;2023-05-21T09:38:40;6.88;;;4.50;;
80127;SDS011;69440;52.118;5.408;2023-05-21T09:41:06;5.38;;;4.10;;
80127;SDS011;69440;52.118;5.408;2023-05-21T09:43:33;7.88;;;4.60;;
80127;SDS011;69440;52.118;5.408;2023-05-21T09:45:59;10.40;;;5.40;;
80127;SDS011;69440;52.118;5.408;2023-05-21T09:48:42;10.30;;;4.53;;
80127;SDS011;69440;52.118;5.408;2023-05-21T09:51:15;9.10;;;4.65;;
80127;SDS011;69440;52.118;5.408;2023-05-21T09:56:10;7.15;;;4.78;;
80127;SDS011;69440;52.118;5.408;2023-05-21T09:58:36;7.10;;;4.93;;
80127;SDS011;69440;52.118;5.408;2023-05-21T10:01:03;8.88;;;4.88;;
80127;SDS011;69440;52.118;5.408;2023-05-21T10:03:29;6.00;;;4.10;;
80127;SDS011;69440;52.118;5.408;2023-05-21T10:05:57;7.13;;;4.40;;
80127;SDS011;69440;52.118;5.408;2023-05-21T10:08:25;10.90;;;5.10;;
80127;SDS011;69440;52.118;5.408;2023-05-21T10:10:55;7.55;;;4.65;;
80127;SDS011;69440;52.118;5.408;2023-05-21T10:13:22;6.03;;;4.78;;
80127;SDS011;69440;52.118;5.408;2023-05-21T10:15:57;6.95;;;4.90;;
80127;SDS011;69440;52.118;5.408;2023-05-21T10:18:27;6.47;;;5.28;;
80127;SDS011;69440;52.118;5.408;2023-05-21T10:20:54;7.95;;;4.97;;
80127;SDS011;69440;52.118;5.408;2023-05-21T10:23:22;6.82;;;4.88;;
80127;SDS011;69440;52.118;5.408;2023-05-21T10:25:49;8.20;;;4.60;;
80127;SDS011;69440;52.118;5.408;2023-05-21T10:28:16;8.38;;;4.70;;
80127;SDS011;69440;52.118;5.408;2023-05-21T10:30:44;8.13;;;4.65;;
80127;SDS011;69440;52.118;5.408;2023-05-21T10:33:12;8.45;;;4.45;;
80127;SDS011;69440;52.118;5.408;2023-05-21T10:35:41;7.50;;;4.82;;
80127;SDS011;69440;52.118;5.408;2023-05-21T10:38:11;6.65;;;4.50;;
80127;SDS011;69440;52.118;5.408;2023-05-21T10:40:39;6.38;;;4.53;;
80127;SDS011;69440;52.118;5.408;2023-05-21T10:45:46;7.45;;;4.72;;
80127;SDS011;69440;52.118;5.408;2023-05-21T10:51:28;6.53;;;4.82;;
80127;SDS011;69440;52.118;5.408;2023-05-21T10:57:32;7.25;;;4.25;;
80127;SDS011;69440;52.118;5.408;2023-05-21T10:59:52;7.00;;;4.75;;
80127;SDS011;69440;52.118;5.408;2023-05-21T11:02:19;9.00;;;5.05;;
80127;SDS011;69440;52.118;5.408;2023-05-21T11:04:48;8.02;;;5.20;;
80127;SDS011;69440;52.118;5.408;2023-05-21T11:07:27;7.68;;;4.72;;
80127;SDS011;69440;52.118;5.408;2023-05-21T11:13:04;6.38;;;4.55;;
80127;SDS011;69440;52.118;5.408;2023-05-21T11:21:02;7.30;;;5.35;;
80127;SDS011;69440;52.118;5.408;2023-05-21T11:24:06;8.35;;;5.45;;
80127;SDS011;69440;52.118;5.408;2023-05-21T11:26:58;18.67;;;6.72;;
80127;SDS011;69440;52.118;5.408;2023-05-21T11:29:24;7.22;;;5.25;;
80127;SDS011;69440;52.118;5.408;2023-05-21T11:31:59;6.97;;;5.10;;
80127;SDS011;69440;52.118;5.408;2023-05-21T11:34:46;10.70;;;5.53;;
80127;SDS011;69440;52.118;5.408;2023-05-21T11:39:48;6.55;;;4.85;;
80127;SDS011;69440;52.118;5.408;2023-05-21T11:45:00;8.23;;;5.55;;
80127;SDS011;69440;52.118;5.408;2023-05-21T11:47:28;9.82;;;5.55;;
80127;SDS011;69440;52.118;5.408;2023-05-21T11:49:55;8.23;;;5.57;;
80127;SDS011;69440;52.118;5.408;2023-05-21T11:52:23;7.82;;;5.60;;
80127;SDS011;69440;52.118;5.408;2023-05-21T11:54:51;6.43;;;5.38;;
80127;SDS011;69440;52.118;5.408;2023-05-21T11:57:26;7.05;;;5.80;;
80127;SDS011;69440;52.118;5.408;2023-05-21T11:59:57;6.75;;;6.05;;
80127;SDS011;69440;52.118;5.408;2023-05-21T12:02:25;7.38;;;5.50;;
80127;SDS011;69440;52.118;5.408;2023-05-21T12:04:53;8.10;;;5.95;;
80127;SDS011;69440;52.118;5.408;2023-05-21T12:07:25;7.10;;;5.30;;
80127;SDS011;69440;52.118;5.408;2023-05-21T12:09:56;7.70;;;5.65;;
80127;SDS011;69440;52.118;5.408;2023-05-21T12:12:24;6.53;;;5.45;;
80127;SDS011;69440;52.118;5.408;2023-05-21T12:14:58;8.20;;;6.43;;
80127;SDS011;69440;52.118;5.408;2023-05-21T12:17:24;8.48;;;6.20;;
80127;SDS011;69440;52.118;5.408;2023-05-21T12:19:52;7.88;;;5.40;;
80127;SDS011;69440;52.118;5.408;2023-05-21T12:22:21;9.20;;;5.93;;
80127;SDS011;69440;52.118;5.408;2023-05-21T12:24:49;9.32;;;6.18;;
80127;SDS011;69440;52.118;5.408;2023-05-21T12:27:16;7.90;;;5.90;;
80127;SDS011;69440;52.118;5.408;2023-05-21T12:29:43;7.47;;;5.70;;
80127;SDS011;69440;52.118;5.408;2023-05-21T12:32:12;8.70;;;6.47;;
80127;SDS011;69440;52.118;5.408;2023-05-21T12:34:40;8.20;;;6.28;;
80127;SDS011;69440;52.118;5.408;2023-05-21T12:39:46;9.02;;;6.82;;
80127;SDS011;69440;52.118;5.408;2023-05-21T12:42:14;8.05;;;6.03;;
80127;SDS011;69440;52.118;5.408;2023-05-21T12:44:44;9.30;;;5.85;;
80127;SDS011;69440;52.118;5.408;2023-05-21T12:47:12;8.35;;;6.40;;
80127;SDS011;69440;52.118;5.408;2023-05-21T12:49:43;7.30;;;6.25;;
80127;SDS011;69440;52.118;5.408;2023-05-21T12:52:13;7.68;;;5.90;;
80127;SDS011;69440;52.118;5.408;2023-05-21T12:54:44;7.63;;;6.18;;
80127;SDS011;69440;52.118;5.408;2023-05-21T12:57:15;8.85;;;5.90;;
80127;SDS011;69440;52.118;5.408;2023-05-21T12:59:46;8.85;;;5.50;;
80127;SDS011;69440;52.118;5.408;2023-05-21T13:02:24;8.50;;;6.80;;
80127;SDS011;69440;52.118;5.408;2023-05-21T13:04:59;7.07;;;6.10;;
80127;SDS011;69440;52.118;5.408;2023-05-21T13:07:27;8.43;;;6.28;;
80127;SDS011;69440;52.118;5.408;2023-05-21T13:09:55;9.88;;;6.25;;
80127;SDS011;69440;52.118;5.408;2023-05-21T13:12:22;9.18;;;6.20;;
80127;SDS011;69440;52.118;5.408;2023-05-21T13:14:50;9.13;;;6.82;;
80127;SDS011;69440;52.118;5.408;2023-05-21T13:17:18;7.57;;;6.07;;
80127;SDS011;69440;52.118;5.408;2023-05-21T13:20:03;7.80;;;6.50;;
80127;SDS011;69440;52.118;5.408;2023-05-21T13:22:41;9.80;;;6.65;;
80127;SDS011;69440;52.118;5.408;2023-05-21T13:25:15;9.05;;;6.57;;
80127;SDS011;69440;52.118;5.408;2023-05-21T13:27:47;8.10;;;6.30;;
80127;SDS011;69440;52.118;5.408;2023-05-21T13:30:14;8.65;;;6.30;;
80127;SDS011;69440;52.118;5.408;2023-05-21T13:32:41;7.95;;;6.65;;
80127;SDS011;69440;52.118;5.408;2023-05-21T13:35:08;8.40;;;6.55;;
80127;SDS011;69440;52.118;5.408;2023-05-21T13:37:37;10.60;;;6.72;;
80127;SDS011;69440;52.118;5.408;2023-05-21T13:40:05;9.77;;;6.85;;
80127;SDS011;69440;52.118;5.408;2023-05-21T13:42:36;11.77;;;6.85;;
80127;SDS011;69440;52.118;5.408;2023-05-21T13:45:04;12.35;;;6.60;;
80127;SDS011;69440;52.118;5.408;2023-05-21T13:47:31;9.15;;;6.40;;
80127;SDS011;69440;52.118;5.408;2023-05-21T13:49:58;8.18;;;5.65;;
80127;SDS011;69440;52.118;5.408;2023-05-21T13:52:25;8.80;;;5.60;;
80127;SDS011;69440;52.118;5.408;2023-05-21T13:54:51;7.53;;;5.30;;
80127;SDS011;69440;52.118;5.408;2023-05-21T13:57:18;7.05;;;5.78;;
80127;SDS011;69440;52.118;5.408;2023-05-21T13:59:45;9.05;;;6.60;;
80127;SDS011;69440;52.118;5.408;2023-05-21T14:02:11;8.88;;;5.85;;
80127;SDS011;69440;52.118;5.408;2023-05-21T14:04:38;7.90;;;6.15;;
80127;SDS011;69440;52.118;5.408;2023-05-21T14:07:05;9.80;;;6.35;;
80127;SDS011;69440;52.118;5.408;2023-05-21T14:09:32;9.90;;;6.45;;
80127;SDS011;69440;52.118;5.408;2023-05-21T14:11:59;8.43;;;6.20;;
80127;SDS011;69440;52.118;5.408;2023-05-21T14:14:26;9.82;;;5.93;;
80127;SDS011;69440;52.118;5.408;2023-05-21T14:16:53;8.65;;;6.53;;
80127;SDS011;69440;52.118;5.408;2023-05-21T14:19:19;8.40;;;6.50;;
80127;SDS011;69440;52.118;5.408;2023-05-21T14:21:46;10.07;;;6.38;;
80127;SDS011;69440;52.118;5.408;2023-05-21T14:24:12;8.85;;;6.10;;
80127;SDS011;69440;52.118;5.408;2023-05-21T14:26:39;7.85;;;5.82;;
80127;SDS011;69440;52.118;5.408;2023-05-21T14:29:06;8.88;;;7.30;;
80127;SDS011;69440;52.118;5.408;2023-05-21T14:31:33;10.02;;;6.85;;
80127;SDS011;69440;52.118;5.408;2023-05-21T14:34:00;7.57;;;6.28;;
80127;SDS011;69440;52.118;5.408;2023-05-21T14:36:28;9.05;;;6.28;;
80127;SDS011;69440;52.118;5.408;2023-05-21T14:38:55;9.82;;;6.30;;
80127;SDS011;69440;52.118;5.408;2023-05-21T14:41:25;9.02;;;7.03;;
80127;SDS011;69440;52.118;5.408;2023-05-21T14:43:52;10.95;;;6.05;;
80127;SDS011;69440;52.118;5.408;2023-05-21T14:46:19;7.90;;;6.45;;
80127;SDS011;69440;52.118;5.408;2023-05-21T14:48:45;10.52;;;6.85;;
80127;SDS011;69440;52.118;5.408;2023-05-21T14:51:12;7.05;;;4.10;;
80127;SDS011;69440;52.118;5.408;2023-05-21T14:53:39;8.43;;;4.13;;
80127;SDS011;69440;52.118;5.408;2023-05-21T14:56:06;7.25;;;4.43;;
80127;SDS011;69440;52.118;5.408;2023-05-21T14:58:33;7.30;;;4.70;;
80127;SDS011;69440;52.118;5.408;2023-05-21T15:00:59;6.03;;;3.58;;
80127;SDS011;69440;52.118;5.408;2023-05-21T15:03:26;5.07;;;3.25;;
80127;SDS011;69440;52.118;5.408;2023-05-21T15:05:53;6.15;;;3.92;;
80127;SDS011;69440;52.118;5.408;2023-05-21T15:08:20;6.53;;;3.90;;
80127;SDS011;69440;52.118;5.408;2023-05-21T15:10:46;8.73;;;4.53;;
80127;SDS011;69440;52.118;5.408;2023-05-21T15:13:13;4.25;;;3.25;;
80127;SDS011;69440;52.118;5.408;2023-05-21T15:15:39;8.75;;;4.00;;
80127;SDS011;69440;52.118;5.408;2023-05-21T15:18:06;6.43;;;3.95;;
80127;SDS011;69440;52.118;5.408;2023-05-21T15:20:32;6.65;;;3.63;;
80127;SDS011;69440;52.118;5.408;2023-05-21T15:22:59;7.85;;;4.65;;
80127;SDS011;69440;52.118;5.408;2023-05-21T15:25:42;6.93;;;4.60;;